Time;durP1;ratioP1;P1;durP2;ratioP2;P2;SDS_P1;SDS_P2;PMS_P1;PMS_P2;Temp;Humidity;BMP_temperature;BMP_pressure;BME280_temperature;BME280_humidity;BME280_pressure;Samples;Min_cycle;Max_cycle;Signal;HPM_P1;HPM_P2
2023/07/25 00:00:06;;;;;;;10.23;4.05;;;;;;;13.80;88.15;99400.03;10160174;29;20063;-78
2023/07/25 00:05:10;;;;;;;11.98;3.80;;;;;;;13.99;87.93;99403.38;10149447;29;20046;-77
2023/07/25 00:10:13;;;;;;;10.32;3.40;;;;;;;13.97;87.87;99405.44;10153360;29;20132;-77
2023/07/25 00:15:16;;;;;;;16.45;4.10;;;;;;;13.90;87.66;99406.09;10152727;29;20044;-76
2023/07/25 00:20:20;;;;;;;12.55;3.78;;;;;;;13.70;87.19;99400.19;10156357;29;20056;-76
2023/07/25 00:25:24;;;;;;;8.65;3.95;;;;;;;13.71;87.63;99407.28;10136577;29;20041;-77
2023/07/25 00:30:27;;;;;;;12.93;4.20;;;;;;;13.78;86.96;99418.25;10151316;29;20041;-77
2023/07/25 00:35:31;;;;;;;10.82;3.72;;;;;;;13.73;86.92;99417.91;10156068;29;20044;-77
2023/07/25 00:40:38;;;;;;;11.43;3.97;;;;;;;13.55;87.04;99414.50;10154259;29;20044;-77
2023/07/25 00:45:41;;;;;;;9.23;4.07;;;;;;;13.51;87.12;99424.81;10144816;29;20052;-77
2023/07/25 00:50:46;;;;;;;9.02;4.20;;;;;;;13.51;87.63;99429.34;10152230;29;20047;-77
2023/07/25 00:55:50;;;;;;;11.50;4.05;;;;;;;13.35;87.46;99422.03;10153112;29;20115;-77
2023/07/25 01:01:01;;;;;;;9.70;3.50;;;;;;;13.48;87.02;99425.97;10146122;29;20488;-76
2023/07/25 01:06:08;;;;;;;9.65;4.20;;;;;;;13.53;86.77;99414.69;10144962;29;20040;-77
2023/07/25 01:11:11;;;;;;;13.18;3.85;;;;;;;13.55;86.51;99426.16;10152407;29;20423;-77
2023/07/25 01:16:17;;;;;;;9.18;3.83;;;;;;;13.13;87.08;99435.13;10152534;29;20040;-78
2023/07/25 01:21:22;;;;;;;8.95;3.75;;;;;;;13.18;86.80;99442.75;10163439;29;20079;-76
2023/07/25 01:26:27;;;;;;;11.68;4.82;;;;;;;13.34;86.28;99441.94;10162738;29;20041;-77
2023/07/25 01:31:30;;;;;;;8.10;4.35;;;;;;;13.39;86.12;99434.22;10157704;29;20057;-77
2023/07/25 01:36:33;;;;;;;17.88;4.05;;;;;;;13.21;86.60;99432.47;10180043;29;20036;-77
2023/07/25 01:41:38;;;;;;;17.50;5.30;;;;;;;13.26;86.16;99431.97;10166244;29;20076;-77
2023/07/25 01:46:41;;;;;;;18.73;4.80;;;;;;;13.23;85.67;99432.31;10155096;29;20044;-77
2023/07/25 01:51:44;;;;;;;10.75;4.75;;;;;;;13.30;85.85;99436.00;10160853;29;20044;-77
2023/07/25 01:56:49;;;;;;;15.18;5.43;;;;;;;13.31;86.08;99423.41;10158261;29;20131;-77
2023/07/25 02:01:53;;;;;;;12.45;4.47;;;;;;;13.31;86.37;99416.16;10161580;29;20058;-78
2023/07/25 02:06:56;;;;;;;14.30;5.15;;;;;;;13.25;86.72;99404.16;10159996;29;20573;-77
2023/07/25 02:12:02;;;;;;;13.13;5.50;;;;;;;13.05;86.37;99398.22;10158805;29;20044;-77
2023/07/25 02:17:05;;;;;;;11.00;4.80;;;;;;;13.03;86.24;99407.50;10162114;29;20068;-77
2023/07/25 02:22:08;;;;;;;15.32;6.05;;;;;;;12.77;87.01;99407.56;10156248;29;20036;-76
2023/07/25 02:27:13;;;;;;;12.65;5.45;;;;;;;12.96;86.45;99403.75;10154044;29;20128;-77
2023/07/25 02:32:16;;;;;;;10.23;4.97;;;;;;;12.83;86.96;99401.50;10152810;29;20124;-77
2023/07/25 02:37:18;;;;;;;14.52;5.63;;;;;;;12.70;87.06;99396.59;10161828;29;20427;-78
2023/07/25 02:42:23;;;;;;;13.07;5.85;;;;;;;12.83;86.90;99390.72;10158235;29;20132;-76
2023/07/25 02:47:26;;;;;;;12.85;6.07;;;;;;;12.75;87.07;99388.00;10152709;29;20491;-77
2023/07/25 02:52:29;;;;;;;18.67;5.70;;;;;;;12.71;86.99;99390.19;10154689;29;20048;-77
2023/07/25 02:57:33;;;;;;;15.70;5.65;;;;;;;12.26;87.38;99388.59;10159044;29;20040;-77
2023/07/25 03:02:36;;;;;;;16.65;5.85;;;;;;;12.54;86.79;99385.75;10162513;29;20052;-78
2023/07/25 03:07:39;;;;;;;22.60;6.47;;;;;;;12.51;87.06;99391.47;10150305;29;20589;-78
2023/07/25 03:12:43;;;;;;;26.90;6.88;;;;;;;12.46;87.38;99394.63;10161275;29;20079;-79
2023/07/25 03:17:46;;;;;;;13.30;5.90;;;;;;;12.46;87.55;99396.47;10169166;29;20067;-77
2023/07/25 03:22:49;;;;;;;11.32;6.55;;;;;;;12.45;87.81;99406.41;10167691;29;20063;-78
2023/07/25 03:27:53;;;;;;;17.80;7.63;;;;;;;12.44;87.85;99406.56;10157187;29;20543;-78
2023/07/25 03:32:56;;;;;;;11.63;7.15;;;;;;;12.50;88.27;99400.53;10176080;29;20064;-78
2023/07/25 03:37:59;;;;;;;21.55;7.38;;;;;;;12.43;87.90;99400.34;10163227;29;20522;-78
2023/07/25 03:43:03;;;;;;;14.30;7.95;;;;;;;12.48;88.89;99402.53;10161642;29;20505;-77
2023/07/25 03:48:07;;;;;;;18.52;9.38;;;;;;;12.55;89.18;99417.03;10158227;29;20527;-76
2023/07/25 03:53:09;;;;;;;13.60;8.77;;;;;;;12.60;89.34;99425.50;10153542;29;20060;-78
2023/07/25 03:58:14;;;;;;;15.55;8.30;;;;;;;12.60;89.20;99426.34;10159638;29;20127;-77
2023/07/25 04:03:16;;;;;;;21.83;8.23;;;;;;;12.59;89.29;99431.91;10156984;29;20052;-77
2023/07/25 04:08:20;;;;;;;14.60;7.93;;;;;;;12.61;88.83;99421.78;10153360;29;20508;-78
2023/07/25 04:13:24;;;;;;;14.18;7.70;;;;;;;12.66;89.62;99421.31;10144772;29;20156;-78
2023/07/25 04:18:27;;;;;;;20.58;8.57;;;;;;;12.59;88.02;99413.03;10160118;29;20111;-76
2023/07/25 04:23:30;;;;;;;17.10;7.65;;;;;;;12.52;88.17;99420.06;10157671;29;20076;-78
2023/07/25 04:28:34;;;;;;;18.85;7.60;;;;;;;12.57;88.43;99425.81;10161356;29;20060;-79
2023/07/25 04:33:37;;;;;;;13.60;7.88;;;;;;;12.66;88.42;99427.53;10171593;29;20128;-77
2023/07/25 04:38:40;;;;;;;17.45;8.05;;;;;;;12.76;88.55;99430.13;10155700;29;20044;-77
2023/07/25 04:43:44;;;;;;;15.40;7.85;;;;;;;12.62;87.01;99433.44;10146885;29;20541;-77
2023/07/25 04:48:47;;;;;;;12.82;7.10;;;;;;;12.62;87.57;99433.44;10156283;29;20053;-76
2023/07/25 04:53:50;;;;;;;13.55;7.93;;;;;;;12.80;88.30;99423.38;10172097;29;20047;-78
2023/07/25 04:58:54;;;;;;;13.45;8.07;;;;;;;12.91;87.25;99425.78;10155881;29;20143;-78
2023/07/25 05:03:58;;;;;;;20.92;9.32;;;;;;;13.07;86.45;99419.63;10155574;29;20115;-77
2023/07/25 05:09:01;;;;;;;13.80;8.73;;;;;;;13.29;87.38;99410.06;10157063;29;20048;-76
2023/07/25 05:14:05;;;;;;;13.68;7.55;;;;;;;13.30;86.50;99419.81;10156347;29;20052;-76
2023/07/25 05:19:08;;;;;;;14.93;8.20;;;;;;;13.36;84.38;99412.97;10164399;29;20048;-76
2023/07/25 05:24:11;;;;;;;18.00;7.72;;;;;;;12.80;84.91;99426.09;10172233;29;20067;-76
2023/07/25 05:29:15;;;;;;;18.13;7.35;;;;;;;13.38;84.04;99419.03;10157466;29;20040;-76
2023/07/25 05:34:18;;;;;;;13.25;7.50;;;;;;;13.45;83.34;99418.22;10152370;29;20396;-75
2023/07/25 05:39:21;;;;;;;11.68;6.18;;;;;;;13.28;81.81;99420.00;10159012;29;20052;-76
2023/07/25 05:44:25;;;;;;;11.23;5.22;;;;;;;13.37;81.88;99420.91;10157397;29;20036;-76
2023/07/25 05:49:28;;;;;;;12.30;5.25;;;;;;;13.33;81.46;99418.66;10148891;29;20602;-76
2023/07/25 05:54:30;;;;;;;14.80;5.13;;;;;;;13.53;80.32;99414.69;10147492;29;20052;-76
2023/07/25 05:59:34;;;;;;;11.20;4.00;;;;;;;13.90;80.78;99416.03;10158018;29;20047;-76
2023/07/25 06:04:37;;;;;;;7.35;4.35;;;;;;;14.12;80.80;99425.31;10156362;29;20049;-76
2023/07/25 06:09:41;;;;;;;6.65;4.05;;;;;;;13.80;77.16;99424.31;10149446;29;20165;-77
2023/07/25 06:14:45;;;;;;;10.52;3.53;;;;;;;13.98;78.68;99434.09;10147991;29;20047;-77
2023/07/25 06:19:48;;;;;;;11.23;3.20;;;;;;;13.77;76.04;99431.88;10159655;29;20062;-77
2023/07/25 06:24:51;;;;;;;11.40;3.40;;;;;;;14.21;76.41;99442.38;10160497;29;20082;-77
2023/07/25 06:29:55;;;;;;;10.80;3.22;;;;;;;13.91;76.63;99452.84;10153294;29;20511;-77
2023/07/25 06:34:58;;;;;;;7.70;3.08;;;;;;;13.89;75.01;99465.66;10146461;29;20132;-76
2023/07/25 06:40:01;;;;;;;10.93;3.25;;;;;;;14.28;74.39;99468.50;10158412;29;20056;-76
2023/07/25 06:45:07;;;;;;;10.48;2.75;;;;;;;14.66;72.14;99479.63;10155952;29;20064;-77
2023/07/25 06:50:10;;;;;;;10.07;3.00;;;;;;;15.25;71.22;99477.38;10149246;29;20044;-76
2023/07/25 06:55:13;;;;;;;4.50;2.72;;;;;;;15.20;70.50;99481.63;10145332;29;20135;-76
2023/07/25 07:00:18;;;;;;;10.32;2.65;;;;;;;15.52;70.72;99480.63;10154650;29;20135;-76
2023/07/25 07:05:21;;;;;;;4.70;2.38;;;;;;;16.08;69.98;99470.41;10154772;29;20048;-76
2023/07/25 07:10:33;;;;;;;8.18;2.22;;;;;;;15.90;66.66;99457.16;10147160;29;20048;-76
2023/07/25 07:15:37;;;;;;;5.40;2.20;;;;;;;16.36;67.78;99454.44;10154112;29;20072;-76
2023/07/25 07:20:47;;;;;;;10.50;2.58;;;;;;;16.35;67.13;99460.06;10167283;29;20064;-76
2023/07/25 07:25:51;;;;;;;8.52;2.10;;;;;;;17.10;65.23;99450.88;10157295;29;20061;-76
2023/07/25 07:30:55;;;;;;;7.97;2.13;;;;;;;17.56;63.56;99445.19;10146787;29;20055;-77
2023/07/25 07:35:58;;;;;;;5.22;2.10;;;;;;;16.99;62.41;99460.34;10149639;29;20131;-75
2023/07/25 07:41:01;;;;;;;7.32;2.30;;;;;;;18.31;63.65;99440.25;10154852;29;20120;-75
2023/07/25 07:46:05;;;;;;;5.43;1.80;;;;;;;17.65;58.02;99432.31;10161672;29;20074;-75
2023/07/25 07:51:08;;;;;;;7.00;1.65;;;;;;;16.38;62.80;99429.03;10157620;29;20123;-75
2023/07/25 07:56:12;;;;;;;2.40;1.65;;;;;;;18.09;56.96;99421.25;10149692;29;20071;-75
2023/07/25 08:01:17;;;;;;;9.25;2.58;;;;;;;18.37;57.39;99434.00;10159767;29;20051;-75
2023/07/25 08:06:20;;;;;;;7.55;2.70;;;;;;;19.93;58.25;99436.16;10155851;29;20385;-76
2023/07/25 08:11:23;;;;;;;5.43;1.80;;;;;;;20.43;51.30;99429.28;10157742;29;20493;-76
2023/07/25 08:16:27;;;;;;;8.70;2.13;;;;;;;19.38;52.49;99428.06;10153906;29;20556;-76
2023/07/25 08:21:30;;;;;;;6.53;1.52;;;;;;;18.32;56.94;99431.91;10156868;29;20092;-75
2023/07/25 08:26:37;;;;;;;5.38;1.83;;;;;;;17.98;57.49;99431.81;10161670;29;20051;-76
2023/07/25 08:31:41;;;;;;;7.03;2.10;;;;;;;18.23;58.25;99429.53;10154024;29;20040;-76
2023/07/25 08:36:44;;;;;;;9.05;1.95;;;;;;;18.43;57.30;99435.97;10145671;29;20040;-76
2023/07/25 08:41:52;;;;;;;4.28;1.80;;;;;;;17.74;57.13;99431.16;10158585;29;20515;-76
2023/07/25 08:46:58;;;;;;;4.20;1.70;;;;;;;17.99;57.89;99436.22;10165993;29;20492;-76
2023/07/25 08:52:04;;;;;;;7.45;2.15;;;;;;;18.24;56.42;99445.66;10154118;29;20052;-76
2023/07/25 08:57:08;;;;;;;5.35;1.42;;;;;;;20.25;55.21;99437.22;10155882;29;20044;-76
2023/07/25 09:02:13;;;;;;;5.55;1.83;;;;;;;21.80;50.48;99430.03;10171224;29;20122;-76
2023/07/25 09:07:16;;;;;;;7.40;1.70;;;;;;;19.22;51.65;99443.72;10169662;29;20135;-76
2023/07/25 09:12:19;;;;;;;5.72;1.70;;;;;;;18.71;54.00;99445.97;10167868;29;20385;-75
2023/07/25 09:17:23;;;;;;;7.80;1.63;;;;;;;18.42;56.03;99445.13;10165403;29;20044;-76
2023/07/25 09:22:28;;;;;;;3.70;1.58;;;;;;;18.94;53.74;99441.09;10180880;29;20096;-76
2023/07/25 09:27:30;;;;;;;8.55;2.10;;;;;;;18.63;53.91;99444.25;10176819;29;20047;-76
2023/07/25 09:32:36;;;;;;;9.68;2.05;;;;;;;18.65;55.40;99454.91;10170276;29;20062;-75
2023/07/25 09:37:39;;;;;;;5.63;2.05;;;;;;;17.41;58.46;99457.97;10166157;29;20048;-75
2023/07/25 09:42:42;;;;;;;3.35;2.05;;;;;;;17.74;59.45;99447.44;10164262;29;20124;-75
2023/07/25 09:47:51;;;;;;;3.65;1.70;;;;;;;17.47;58.50;99451.78;10163590;29;20497;-75
2023/07/25 09:52:54;;;;;;;6.72;1.55;;;;;;;18.15;56.27;99446.81;10155589;29;20088;-75
2023/07/25 09:57:57;;;;;;;5.07;1.80;;;;;;;18.67;57.17;99445.50;10148778;29;20049;-75
2023/07/25 10:03:01;;;;;;;3.88;2.22;;;;;;;19.91;54.30;99441.81;10153597;29;20052;-76
2023/07/25 10:08:08;;;;;;;2.22;1.60;;;;;;;19.40;52.14;99443.16;10157896;29;20076;-76
2023/07/25 10:13:11;;;;;;;4.65;1.52;;;;;;;19.70;53.99;99437.41;10149681;29;20560;-75
2023/07/25 10:18:20;;;;;;;4.30;1.65;;;;;;;19.19;54.92;99440.56;10149863;29;20051;-75
2023/07/25 10:23:30;;;;;;;3.05;1.52;;;;;;;18.82;55.16;99440.00;10153507;29;20104;-75
2023/07/25 10:28:33;;;;;;;8.25;2.63;;;;;;;18.76;54.17;99446.22;10158007;29;20051;-75
2023/07/25 10:33:43;;;;;;;5.05;2.35;;;;;;;19.13;54.66;99449.56;10149411;29;20059;-75
2023/07/25 10:38:48;;;;;;;4.65;1.92;;;;;;;19.50;54.16;99434.63;10146998;29;20051;-75
2023/07/25 10:43:56;;;;;;;7.65;2.35;;;;;;;20.51;53.34;99442.66;10155693;29;20501;-75
2023/07/25 10:49:04;;;;;;;4.45;1.95;;;;;;;20.23;51.53;99439.31;10157933;29;20048;-75
2023/07/25 10:54:08;;;;;;;6.13;2.50;;;;;;;20.57;50.87;99441.00;10156495;29;20465;-75
2023/07/25 10:59:12;;;;;;;5.88;1.50;;;;;;;21.02;47.79;99438.34;10153114;29;20072;-76
2023/07/25 11:04:32;;;;;;;2.78;1.10;;;;;;;21.50;46.62;99437.09;10157897;29;20044;-76
2023/07/25 11:09:40;;;;;;;4.53;1.73;;;;;;;21.30;46.25;99432.59;10158952;29;20040;-76
2023/07/25 11:14:44;;;;;;;4.95;2.03;;;;;;;21.14;46.82;99446.72;10154397;29;20044;-76
2023/07/25 11:19:49;;;;;;;6.07;1.45;;;;;;;22.38;45.55;99436.25;10163482;29;20048;-76
2023/07/25 11:24:53;;;;;;;4.97;1.17;;;;;;;22.55;42.79;99438.25;10159268;29;20044;-76
2023/07/25 11:30:09;;;;;;;2.75;1.10;;;;;;;22.53;42.59;99440.34;10157771;29;20787;-76
2023/07/25 11:35:13;;;;;;;2.00;1.00;;;;;;;22.08;43.23;99443.25;10168475;29;20049;-76
2023/07/25 11:40:18;;;;;;;3.45;1.35;;;;;;;22.38;44.91;99431.66;10151596;29;20049;-75
2023/07/25 11:45:23;;;;;;;5.35;1.30;;;;;;;23.01;43.60;99438.81;10148718;29;20055;-76
2023/07/25 11:50:28;;;;;;;2.30;1.05;;;;;;;22.51;43.71;99441.66;10155565;29;20147;-76
2023/07/25 11:55:36;;;;;;;3.42;1.17;;;;;;;21.77;45.76;99438.63;10148979;29;20072;-76
2023/07/25 12:00:40;;;;;;;3.90;1.25;;;;;;;21.18;48.13;99445.25;10148064;29;20040;-76
2023/07/25 12:05:52;;;;;;;3.90;1.40;;;;;;;20.97;48.71;99446.34;10153829;29;20522;-75
2023/07/25 12:10:56;;;;;;;4.07;1.30;;;;;;;21.61;46.74;99440.00;10154549;29;20572;-76
2023/07/25 12:16:00;;;;;;;2.05;1.10;;;;;;;22.26;44.62;99433.44;10148224;29;20059;-76
2023/07/25 12:21:05;;;;;;;2.00;1.13;;;;;;;22.08;44.51;99437.78;10152843;29;20044;-76
2023/07/25 12:26:08;;;;;;;3.38;1.30;;;;;;;22.38;42.41;99433.53;10159535;29;20063;-76
2023/07/25 12:31:12;;;;;;;4.30;1.38;;;;;;;22.45;44.42;99439.81;10164063;29;20052;-76
2023/07/25 12:36:17;;;;;;;2.60;0.85;;;;;;;22.03;41.76;99445.00;10162165;29;20040;-76
2023/07/25 12:41:22;;;;;;;2.83;0.70;;;;;;;22.72;40.93;99448.59;10153833;29;20040;-76
2023/07/25 12:46:26;;;;;;;4.72;1.30;;;;;;;23.28;41.64;99444.78;10155720;29;20054;-76
2023/07/25 12:51:30;;;;;;;3.42;1.30;;;;;;;22.73;41.43;99433.84;10155303;29;20040;-76
2023/07/25 12:56:33;;;;;;;2.47;1.10;;;;;;;23.88;41.50;99436.59;10151979;29;20075;-76
2023/07/25 13:01:36;;;;;;;2.65;1.02;;;;;;;23.85;39.25;99438.97;10139870;29;20080;-76
2023/07/25 13:06:41;;;;;;;3.40;1.20;;;;;;;24.20;40.44;99438.22;10149744;29;20088;-75
2023/07/25 13:11:44;;;;;;;3.72;1.30;;;;;;;24.21;39.96;99426.97;10155045;29;21325;-77
2023/07/25 13:16:47;;;;;;;4.32;1.40;;;;;;;23.97;39.77;99428.88;10158356;29;20056;-78
2023/07/25 13:21:51;;;;;;;3.03;1.40;;;;;;;24.50;39.09;99430.72;10148159;29;20045;-76
2023/07/25 13:26:54;;;;;;;4.95;1.60;;;;;;;23.45;40.09;99434.06;10159091;29;20522;-77
2023/07/25 13:31:57;;;;;;;6.50;1.27;;;;;;;22.03;41.99;99437.63;10162140;29;20044;-77
2023/07/25 13:37:01;;;;;;;3.22;1.20;;;;;;;22.49;42.33;99425.47;10153270;29;20040;-77
2023/07/25 13:42:04;;;;;;;5.32;1.30;;;;;;;22.84;39.50;99427.59;10151307;29;20092;-77
2023/07/25 13:47:07;;;;;;;4.95;1.75;;;;;;;22.14;42.13;99436.06;10164750;29;20047;-76
2023/07/25 13:52:11;;;;;;;5.10;1.60;;;;;;;21.53;42.68;99439.38;10158175;29;20048;-76
2023/07/25 13:57:14;;;;;;;4.68;1.08;;;;;;;23.07;38.85;99426.94;10159557;29;20036;-76
2023/07/25 14:02:17;;;;;;;2.40;0.90;;;;;;;24.68;36.00;99429.78;10156543;29;20048;-77
2023/07/25 14:07:21;;;;;;;5.78;0.93;;;;;;;25.18;35.14;99428.41;10161864;29;20378;-76
2023/07/25 14:12:25;;;;;;;3.80;1.00;;;;;;;25.76;33.13;99432.84;10161251;29;20040;-76
2023/07/25 14:17:28;;;;;;;2.53;0.80;;;;;;;24.85;34.57;99418.88;10160891;29;20064;-77
2023/07/25 14:22:33;;;;;;;2.63;0.90;;;;;;;22.07;37.88;99427.06;10155545;29;20048;-77
2023/07/25 14:27:35;;;;;;;2.53;0.80;;;;;;;23.58;38.21;99427.53;10161670;29;20047;-76
2023/07/25 14:32:38;;;;;;;3.38;0.68;;;;;;;24.08;36.16;99416.25;10166289;29;20064;-76
2023/07/25 14:37:43;;;;;;;2.47;0.80;;;;;;;25.42;35.12;99426.38;10161625;29;20579;-76
2023/07/25 14:42:58;;;;;;;1.70;0.60;;;;;;;24.17;34.27;99428.53;10153307;29;20098;-77
2023/07/25 14:48:01;;;;;;;1.95;0.77;;;;;;;23.49;36.72;99427.03;10157665;29;20131;-77
2023/07/25 14:53:05;;;;;;;1.85;0.63;;;;;;;22.80;35.92;99434.63;10161688;29;20582;-76
2023/07/25 14:58:08;;;;;;;3.17;0.90;;;;;;;22.62;35.59;99432.69;10160873;29;20118;-76
2023/07/25 15:03:11;;;;;;;3.13;0.60;;;;;;;25.80;34.68;99425.75;10155111;29;20052;-76
2023/07/25 15:08:16;;;;;;;1.85;0.75;;;;;;;25.06;32.04;99438.56;10155389;29;20071;-77
2023/07/25 15:13:20;;;;;;;0.80;0.50;;;;;;;23.37;34.92;99442.59;10158999;29;20048;-76
2023/07/25 15:18:23;;;;;;;1.45;0.60;;;;;;;23.11;37.01;99443.75;10172817;29;20054;-77
2023/07/25 15:23:27;;;;;;;1.33;0.60;;;;;;;22.00;35.68;99443.53;10152470;29;20056;-76
2023/07/25 15:28:30;;;;;;;2.63;0.60;;;;;;;23.44;35.09;99440.59;10156748;29;20496;-77
2023/07/25 15:33:33;;;;;;;0.95;0.32;;;;;;;21.97;35.06;99448.59;10161088;29;20054;-76
2023/07/25 15:38:37;;;;;;;2.28;0.55;;;;;;;22.75;34.28;99448.97;10161218;29;20043;-76
2023/07/25 15:43:40;;;;;;;1.35;0.40;;;;;;;24.66;32.77;99450.31;10145889;29;20045;-76
2023/07/25 15:48:43;;;;;;;1.13;0.38;;;;;;;23.74;31.46;99453.47;10158029;29;20068;-76
2023/07/25 15:53:50;;;;;;;0.98;0.47;;;;;;;22.52;31.70;99460.59;10158615;29;20047;-76
2023/07/25 15:58:53;;;;;;;2.63;0.52;;;;;;;22.05;33.19;99459.25;10158710;29;20048;-77
2023/07/25 16:03:56;;;;;;;0.98;0.20;;;;;;;22.40;33.91;99476.00;10149619;29;20158;-77
2023/07/25 16:09:01;;;;;;;3.55;0.30;;;;;;;23.95;33.95;99469.41;10161465;29;20051;-77
2023/07/25 16:14:04;;;;;;;1.42;0.38;;;;;;;24.23;34.90;99476.16;10158057;29;20070;-76
2023/07/25 16:19:07;;;;;;;3.45;0.70;;;;;;;24.46;33.46;99465.22;10160650;29;20036;-76
2023/07/25 16:24:11;;;;;;;3.15;0.40;;;;;;;24.64;33.62;99463.44;10154275;29;20052;-76
2023/07/25 16:29:14;;;;;;;2.67;0.80;;;;;;;24.68;34.21;99461.88;10154027;29;20416;-76
2023/07/25 16:34:17;;;;;;;3.47;0.95;;;;;;;23.54;35.83;99465.53;10159170;29;20043;-74
2023/07/25 16:39:21;;;;;;;4.03;1.17;;;;;;;22.15;37.88;99470.53;10160625;29;20416;-76
2023/07/25 16:44:24;;;;;;;3.65;0.60;;;;;;;21.48;39.76;99486.50;10148745;29;20055;-76
2023/07/25 16:49:27;;;;;;;2.47;0.47;;;;;;;23.70;37.80;99474.19;10151199;29;20036;-76
2023/07/25 16:54:33;;;;;;;4.70;0.70;;;;;;;26.06;33.83;99470.22;10149436;29;20427;-76
2023/07/25 16:59:36;;;;;;;3.35;0.85;;;;;;;27.01;30.80;99478.63;10150912;29;20792;-76
2023/07/25 17:04:39;;;;;;;2.15;0.80;;;;;;;30.17;27.28;99473.81;10147100;29;20511;-76
2023/07/25 17:09:43;;;;;;;0.93;0.55;;;;;;;25.63;31.97;99488.09;10157842;29;20074;-75
2023/07/25 17:14:46;;;;;;;3.78;0.50;;;;;;;29.38;29.55;99487.72;10153183;29;20123;-76
2023/07/25 17:19:48;;;;;;;2.20;0.73;;;;;;;31.60;26.80;99484.63;10164804;29;20389;-76
2023/07/25 17:24:53;;;;;;;1.77;0.93;;;;;;;31.98;26.65;99499.69;10157036;29;20064;-77
2023/07/25 17:29:56;;;;;;;5.57;0.80;;;;;;;31.32;27.11;99505.53;10155064;29;20079;-75
2023/07/25 17:34:59;;;;;;;6.97;0.75;;;;;;;30.74;27.93;99508.72;10158831;29;20049;-76
2023/07/25 17:40:03;;;;;;;3.03;0.90;;;;;;;30.93;27.87;99511.72;10160693;29;20040;-76
2023/07/25 17:45:07;;;;;;;3.05;0.88;;;;;;;30.36;28.18;99518.41;10145421;29;20162;-76
2023/07/25 17:50:10;;;;;;;5.53;0.60;;;;;;;25.97;32.52;99530.31;10153784;29;20048;-76
2023/07/25 17:55:15;;;;;;;0.85;0.47;;;;;;;23.68;34.94;99540.22;10157824;29;20052;-76
2023/07/25 18:00:18;;;;;;;2.15;0.50;;;;;;;21.67;37.76;99548.41;10149333;29;20065;-76
2023/07/25 18:05:22;;;;;;;7.18;1.35;;;;;;;19.95;41.32;99563.00;10158395;29;20056;-76
2023/07/25 18:10:27;;;;;;;4.07;0.73;;;;;;;18.94;43.60;99565.41;10162630;29;20127;-76
2023/07/25 18:15:32;;;;;;;1.20;0.60;;;;;;;18.33;45.61;99582.25;10158253;29;20415;-76
2023/07/25 18:20:36;;;;;;;2.40;0.80;;;;;;;18.08;46.17;99584.50;10156074;29;20054;-75
2023/07/25 18:25:43;;;;;;;4.43;0.80;;;;;;;18.46;46.64;99587.00;10144930;29;20500;-76
2023/07/25 18:30:46;;;;;;;4.45;0.88;;;;;;;17.83;47.19;99608.44;10161529;29;20046;-76
2023/07/25 18:35:48;;;;;;;5.82;0.93;;;;;;;17.41;47.29;99605.38;10163287;29;20055;-76
2023/07/25 18:40:53;;;;;;;4.47;0.82;;;;;;;17.47;47.48;99606.53;10164125;29;20102;-75
2023/07/25 18:45:56;;;;;;;2.70;0.70;;;;;;;17.64;47.38;99612.59;10154748;29;20044;-76
2023/07/25 18:51:00;;;;;;;3.00;0.63;;;;;;;17.20;48.54;99611.56;10144098;29;20504;-75
2023/07/25 18:56:05;;;;;;;4.03;0.82;;;;;;;17.41;48.35;99624.38;10155004;29;20075;-75
2023/07/25 19:01:07;;;;;;;2.75;0.60;;;;;;;17.07;48.97;99627.63;10149446;29;20115;-75
2023/07/25 19:06:10;;;;;;;1.60;0.60;;;;;;;17.06;49.63;99647.66;10142839;29;20074;-75
2023/07/25 19:11:15;;;;;;;1.23;0.70;;;;;;;17.04;49.70;99653.25;10155746;29;20052;-76
2023/07/25 19:16:17;;;;;;;1.33;0.50;;;;;;;17.12;49.81;99660.47;10154297;29;20044;-76
2023/07/25 19:21:20;;;;;;;3.03;0.73;;;;;;;16.63;50.68;99660.06;10153756;29;20128;-75
2023/07/25 19:26:26;;;;;;;5.38;1.05;;;;;;;16.52;51.04;99677.59;10146794;29;20046;-75
2023/07/25 19:31:28;;;;;;;2.35;0.80;;;;;;;16.32;50.88;99669.91;10164412;29;20115;-75
2023/07/25 19:36:31;;;;;;;2.42;0.95;;;;;;;16.08;51.24;99678.16;10160115;29;20048;-76
2023/07/25 19:41:36;;;;;;;6.18;0.80;;;;;;;15.63;52.77;99685.09;10153910;29;20071;-75
2023/07/25 19:46:39;;;;;;;1.25;0.75;;;;;;;15.75;52.53;99686.44;10151793;29;20055;-76
2023/07/25 19:51:42;;;;;;;2.90;0.60;;;;;;;15.67;52.52;99686.44;10162632;29;20056;-76
2023/07/25 19:56:47;;;;;;;3.88;0.60;;;;;;;15.24;54.44;99702.06;10158541;29;20111;-77
2023/07/25 20:01:49;;;;;;;3.17;0.70;;;;;;;15.07;54.74;99708.53;10152594;29;20048;-76
2023/07/25 20:06:52;;;;;;;2.72;0.50;;;;;;;14.88;55.73;99713.25;10152994;29;20130;-75
2023/07/25 20:11:57;;;;;;;1.48;0.70;;;;;;;14.78;56.17;99716.13;10155662;29;20066;-75
2023/07/25 20:17:00;;;;;;;3.38;0.95;;;;;;;14.65;56.77;99726.59;10152904;29;20139;-76
2023/07/25 20:22:03;;;;;;;3.60;1.23;;;;;;;14.60;56.86;99731.66;10148914;29;20048;-75
2023/07/25 20:27:08;;;;;;;2.97;0.98;;;;;;;14.52;56.92;99737.03;10145181;29;20061;-75
2023/07/25 20:32:11;;;;;;;4.53;1.45;;;;;;;14.41;57.42;99742.75;10161381;29;20059;-75
2023/07/25 20:37:14;;;;;;;2.45;0.68;;;;;;;14.03;58.06;99743.09;10154768;29;20103;-75
2023/07/25 20:42:18;;;;;;;2.20;0.90;;;;;;;14.15;57.75;99747.22;10157859;29;20052;-76
2023/07/25 20:47:22;;;;;;;2.45;0.90;;;;;;;14.35;57.80;99753.16;10156037;29;20051;-74
2023/07/25 20:52:25;;;;;;;1.65;1.00;;;;;;;14.20;57.70;99762.91;10158344;29;20051;-74
2023/07/25 20:57:29;;;;;;;1.77;0.70;;;;;;;14.19;58.13;99771.19;10157838;29;20126;-75
2023/07/25 21:02:33;;;;;;;2.80;1.10;;;;;;;14.25;57.91;99771.38;10150862;29;20483;-76
2023/07/25 21:07:36;;;;;;;1.17;0.80;;;;;;;14.05;58.83;99765.38;10140365;29;20045;-75
2023/07/25 21:12:41;;;;;;;2.92;1.08;;;;;;;13.68;60.30;99777.31;10144114;29;20072;-76
2023/07/25 21:17:44;;;;;;;2.90;0.95;;;;;;;13.80;60.25;99771.69;10151403;29;20053;-77
2023/07/25 21:22:49;;;;;;;2.15;0.80;;;;;;;13.62;60.42;99780.66;10156006;29;20084;-75
2023/07/25 21:27:53;;;;;;;1.65;1.00;;;;;;;13.49;61.12;99781.09;10143791;29;20420;-75
2023/07/25 21:32:56;;;;;;;2.63;1.20;;;;;;;13.73;60.65;99792.19;10169421;29;20052;-74
2023/07/25 21:37:59;;;;;;;4.70;0.75;;;;;;;13.49;61.19;99800.00;10154341;29;20048;-75
2023/07/25 21:43:03;;;;;;;5.57;1.15;;;;;;;13.57;61.26;99801.88;10160816;29;20041;-75
2023/07/25 21:48:06;;;;;;;4.70;1.20;;;;;;;13.70;60.89;99801.47;10160727;29;20581;-75
2023/07/25 21:53:09;;;;;;;3.17;1.17;;;;;;;13.26;62.51;99804.97;10166240;29;20071;-75
2023/07/25 21:58:13;;;;;;;3.92;1.10;;;;;;;12.93;63.63;99817.31;10167761;29;20048;-75
2023/07/25 22:03:16;;;;;;;3.25;1.45;;;;;;;13.21;63.06;99823.47;10156085;29;20091;-75
2023/07/25 22:08:19;;;;;;;2.67;1.20;;;;;;;13.17;63.35;99822.09;10153810;29;20155;-75
2023/07/25 22:13:24;;;;;;;1.65;1.33;;;;;;;13.37;62.99;99820.09;10154903;29;20032;-75
2023/07/25 22:18:27;;;;;;;3.20;1.23;;;;;;;13.34;63.09;99820.38;10162023;29;20079;-75
2023/07/25 22:23:30;;;;;;;3.67;1.45;;;;;;;13.25;63.22;99826.72;10157057;29;20032;-75
2023/07/25 22:28:34;;;;;;;2.47;1.38;;;;;;;13.10;63.74;99830.97;10158791;29;20147;-75
2023/07/25 22:33:37;;;;;;;3.05;1.23;;;;;;;13.11;63.95;99835.34;10152040;29;20574;-75
2023/07/25 22:38:40;;;;;;;2.15;1.17;;;;;;;13.12;63.69;99837.06;10162315;29;20126;-75
2023/07/25 22:43:44;;;;;;;2.10;1.23;;;;;;;13.17;63.24;99830.19;10158287;29;20048;-75
2023/07/25 22:48:47;;;;;;;2.05;1.25;;;;;;;13.08;63.52;99843.75;10159112;29;20045;-75
2023/07/25 22:53:50;;;;;;;2.72;1.40;;;;;;;13.04;63.90;99840.50;10154275;29;20520;-75
2023/07/25 22:58:54;;;;;;;2.75;1.33;;;;;;;13.04;63.85;99848.59;10155269;29;20060;-75
2023/07/25 23:03:57;;;;;;;2.90;1.52;;;;;;;13.02;63.84;99854.13;10156404;29;20047;-75
2023/07/25 23:09:00;;;;;;;5.45;1.25;;;;;;;12.95;63.88;99853.06;10151851;29;20059;-75
2023/07/25 23:14:04;;;;;;;2.00;1.30;;;;;;;12.82;64.58;99850.72;10153170;29;20040;-75
2023/07/25 23:19:07;;;;;;;6.40;1.60;;;;;;;12.77;64.71;99857.56;10152868;29;20056;-75
2023/07/25 23:24:10;;;;;;;2.75;1.40;;;;;;;12.65;65.37;99858.81;10159286;29;20052;-73
2023/07/25 23:29:14;;;;;;;2.15;1.10;;;;;;;12.60;65.72;99861.94;10156922;29;20229;-73